Time;durP1;ratioP1;P1;durP2;ratioP2;P2;SDS_P1;SDS_P2;PMS_P1;PMS_P2;Temp;Humidity;BMP_temperature;BMP_pressure;BME280_temperature;BME280_humidity;BME280_pressure;Samples;Min_cycle;Max_cycle;Signal;HPM_P1;HPM_P2
2022/05/31 00:01:42;;;;;;;5.50;2.30;;;9.10;99.90;;;;;;5053419;28;20214;-73
2022/05/31 00:04:07;;;;;;;4.40;2.23;;;9.10;99.90;;;;;;5053321;28;20167;-73
2022/05/31 00:06:33;;;;;;;6.30;2.33;;;9.10;99.90;;;;;;5053283;28;20590;-73
2022/05/31 00:08:59;;;;;;;4.37;2.60;;;9.10;99.90;;;;;;5053430;28;20171;-73
2022/05/31 00:11:25;;;;;;;3.20;2.60;;;9.10;99.90;;;;;;5053142;28;20195;-73
2022/05/31 00:13:51;;;;;;;3.90;2.40;;;9.10;99.90;;;;;;5053243;28;20166;-73
2022/05/31 00:16:16;;;;;;;3.17;2.60;;;9.10;99.90;;;;;;5053239;28;20168;-73
2022/05/31 00:18:42;;;;;;;4.13;2.87;;;9.00;99.90;;;;;;5052947;28;20199;-74
2022/05/31 00:21:07;;;;;;;3.67;2.67;;;9.00;99.90;;;;;;5035081;28;20171;-74
2022/05/31 00:23:34;;;;;;;2.90;2.63;;;9.00;99.90;;;;;;5035181;28;20179;-74
2022/05/31 00:25:59;;;;;;;4.30;2.67;;;9.00;99.90;;;;;;5035040;28;20171;-73
2022/05/31 00:28:25;;;;;;;3.30;2.40;;;9.00;99.90;;;;;;5053191;28;20182;-74
2022/05/31 00:30:52;;;;;;;3.47;2.20;;;9.00;99.90;;;;;;5053124;28;20202;-73
2022/05/31 00:33:18;;;;;;;3.53;2.57;;;9.00;99.90;;;;;;5052888;28;20684;-74
2022/05/31 00:35:48;;;;;;;7.53;2.60;;;8.90;99.90;;;;;;5052870;28;20164;-73
2022/05/31 00:38:14;;;;;;;5.50;3.17;;;8.90;99.90;;;;;;5035007;28;20245;-74
2022/05/31 00:40:40;;;;;;;3.67;2.50;;;8.90;99.90;;;;;;5052841;28;20638;-72
2022/05/31 00:43:09;;;;;;;3.07;2.43;;;8.90;99.90;;;;;;5052733;28;20199;-73
2022/05/31 00:45:57;;;;;;;3.23;2.50;;;8.90;99.90;;;;;;5034907;28;20266;-73
2022/05/31 00:48:33;;;;;;;7.30;3.00;;;8.80;99.90;;;;;;5053081;28;20160;-73
2022/05/31 00:51:06;;;;;;;3.50;2.40;;;8.80;99.90;;;;;;5053013;28;20529;-73
2022/05/31 00:53:36;;;;;;;4.07;2.53;;;8.80;99.90;;;;;;5052986;28;20695;-73
2022/05/31 00:56:06;;;;;;;4.70;3.00;;;8.70;99.90;;;;;;5052882;28;20168;-73
2022/05/31 00:58:35;;;;;;;4.77;3.10;;;8.70;99.90;;;;;;5052995;28;20646;-73
2022/05/31 01:01:04;;;;;;;4.73;2.80;;;8.70;99.90;;;;;;5052540;28;20168;-74
2022/05/31 01:03:32;;;;;;;3.83;3.00;;;8.70;99.90;;;;;;5052944;28;20164;-73
2022/05/31 01:05:59;;;;;;;5.93;3.40;;;8.70;99.90;;;;;;5034791;28;20730;-73
2022/05/31 01:08:24;;;;;;;4.37;3.17;;;8.70;99.90;;;;;;5052840;28;20213;-73
2022/05/31 01:10:50;;;;;;;5.03;3.23;;;8.60;99.90;;;;;;5052680;28;20199;-73
2022/05/31 01:13:17;;;;;;;3.20;2.90;;;8.60;99.90;;;;;;5052555;28;20191;-74
2022/05/31 01:15:45;;;;;;;4.47;3.00;;;8.60;99.90;;;;;;5034638;28;20176;-72
2022/05/31 01:18:10;;;;;;;3.40;2.83;;;8.60;99.90;;;;;;5052752;28;20172;-73
2022/05/31 01:20:36;;;;;;;6.80;3.20;;;8.60;99.90;;;;;;5052433;28;20175;-73
2022/05/31 01:23:13;;;;;;;3.90;3.23;;;8.60;99.90;;;;;;5052349;28;20195;-73
2022/05/31 01:26:05;;;;;;;3.73;3.23;;;8.60;99.90;;;;;;5052775;28;20160;-73
2022/05/31 01:28:56;;;;;;;4.73;3.33;;;8.60;99.90;;;;;;5052586;28;20723;-73
2022/05/31 01:31:35;;;;;;;7.87;3.20;;;8.60;99.90;;;;;;5038253;28;20349;-73
2022/05/31 01:34:09;;;;;;;5.80;3.27;;;8.60;99.90;;;;;;5038270;28;20552;-73
2022/05/31 01:36:43;;;;;;;4.13;3.30;;;8.60;99.90;;;;;;5056334;28;20645;-73
2022/05/31 01:39:34;;;;;;;4.90;3.20;;;8.50;99.90;;;;;;5038159;28;20205;-73
2022/05/31 01:42:07;;;;;;;8.70;3.00;;;8.60;99.90;;;;;;5056006;28;20239;-73
2022/05/31 01:44:36;;;;;;;4.70;3.30;;;8.50;99.90;;;;;;5056197;28;20164;-73
2022/05/31 01:47:02;;;;;;;3.93;3.27;;;8.50;99.90;;;;;;5037995;28;20180;-73
2022/05/31 01:49:32;;;;;;;4.63;3.20;;;8.50;99.90;;;;;;5037833;28;20622;-73
2022/05/31 01:51:59;;;;;;;4.47;3.17;;;8.50;99.90;;;;;;5055736;28;20218;-73
2022/05/31 01:54:26;;;;;;;6.47;3.07;;;8.60;99.90;;;;;;5056242;28;20164;-73
2022/05/31 01:56:57;;;;;;;4.97;3.00;;;8.50;99.90;;;;;;5055662;28;20593;-73
2022/05/31 01:59:25;;;;;;;4.93;3.77;;;8.60;99.90;;;;;;5054353;28;20258;-73
2022/05/31 02:01:52;;;;;;;5.33;3.17;;;8.60;99.90;;;;;;5055872;28;20708;-73
2022/05/31 02:04:18;;;;;;;5.37;3.30;;;8.60;99.90;;;;;;5037787;28;20175;-72
2022/05/31 02:06:45;;;;;;;5.97;3.27;;;8.60;99.90;;;;;;5037689;28;20178;-73
2022/05/31 02:09:13;;;;;;;5.77;3.17;;;8.70;99.90;;;;;;5055400;28;20673;-73
2022/05/31 02:11:40;;;;;;;6.07;3.57;;;8.70;99.90;;;;;;5055362;28;20673;-73
2022/05/31 02:14:08;;;;;;;4.47;3.60;;;8.70;99.90;;;;;;5055310;28;20225;-73
2022/05/31 02:16:33;;;;;;;4.27;2.90;;;8.70;99.90;;;;;;5055806;28;20160;-73
2022/05/31 02:21:43;;;;;;;4.00;3.20;;;8.70;99.90;;;;;;5055431;28;20198;-73
2022/05/31 02:24:11;;;;;;;3.30;2.97;;;8.80;99.90;;;;;;5055192;28;20171;-73
2022/05/31 02:26:41;;;;;;;3.27;2.90;;;8.80;99.90;;;;;;5037195;28;20171;-73
2022/05/31 02:29:09;;;;;;;4.47;2.97;;;8.80;99.90;;;;;;5055233;28;20171;-73
2022/05/31 02:31:35;;;;;;;5.73;3.47;;;8.80;99.90;;;;;;5054984;28;20187;-73
2022/05/31 02:34:01;;;;;;;4.57;3.30;;;8.80;99.90;;;;;;5054927;28;20223;-73
2022/05/31 02:36:27;;;;;;;5.97;3.30;;;8.80;99.90;;;;;;5054923;28;20172;-74
2022/05/31 02:38:53;;;;;;;4.63;3.30;;;8.80;99.90;;;;;;5036949;28;20723;-73
2022/05/31 02:41:20;;;;;;;4.20;2.90;;;8.80;99.90;;;;;;5054733;28;20195;-74
2022/05/31 02:43:45;;;;;;;4.77;2.90;;;8.80;99.90;;;;;;5055105;28;20164;-73
2022/05/31 02:46:11;;;;;;;4.23;3.00;;;8.80;99.90;;;;;;5055046;28;20168;-73
2022/05/31 02:48:36;;;;;;;7.47;3.40;;;8.80;99.90;;;;;;5054678;28;20172;-73
2022/05/31 02:51:02;;;;;;;5.53;3.60;;;8.80;99.90;;;;;;5036622;28;20203;-74
2022/05/31 02:53:29;;;;;;;4.47;2.97;;;8.80;99.90;;;;;;5036739;28;20246;-73
2022/05/31 02:55:55;;;;;;;5.07;3.57;;;8.80;99.90;;;;;;5036681;28;20182;-73
2022/05/31 02:58:21;;;;;;;3.63;3.03;;;8.80;99.90;;;;;;5054783;28;20175;-73
2022/05/31 03:00:46;;;;;;;4.43;3.13;;;8.80;99.90;;;;;;5054689;28;20176;-73
2022/05/31 03:03:12;;;;;;;3.93;2.97;;;8.80;99.90;;;;;;5054356;28;20653;-73
2022/05/31 03:05:37;;;;;;;6.17;3.00;;;8.80;99.90;;;;;;5054332;28;20638;-73
2022/05/31 03:08:03;;;;;;;4.00;2.87;;;8.90;99.90;;;;;;5054336;28;20232;-73
2022/05/31 03:10:34;;;;;;;2.63;2.40;;;8.90;99.90;;;;;;5054196;28;20570;-73
2022/05/31 03:13:00;;;;;;;6.77;2.77;;;8.90;99.90;;;;;;5054200;28;20184;-73
2022/05/31 03:15:29;;;;;;;3.70;2.67;;;8.90;99.90;;;;;;5054180;28;20659;-73
2022/05/31 03:18:04;;;;;;;4.60;2.53;;;9.00;99.90;;;;;;5036206;28;20679;-73
2022/05/31 03:20:51;;;;;;;6.90;3.10;;;9.00;99.90;;;;;;5054358;28;20162;-74
2022/05/31 03:23:40;;;;;;;3.70;2.43;;;9.00;99.90;;;;;;5054217;28;20195;-73
2022/05/31 03:26:08;;;;;;;6.83;3.23;;;9.00;99.90;;;;;;5053872;28;20180;-73
2022/05/31 03:28:35;;;;;;;4.03;2.87;;;9.00;99.90;;;;;;5054172;28;20540;-73
2022/05/31 03:31:02;;;;;;;4.97;2.93;;;9.00;99.90;;;;;;5053718;28;20266;-74
2022/05/31 03:33:28;;;;;;;3.33;2.80;;;9.10;99.90;;;;;;5053826;28;20172;-73
2022/05/31 03:35:53;;;;;;;6.80;3.53;;;9.10;99.90;;;;;;5053872;28;20160;-73
2022/05/31 03:38:19;;;;;;;4.03;2.90;;;9.10;99.90;;;;;;5053724;28;20164;-73
2022/05/31 03:40:57;;;;;;;5.17;2.97;;;9.10;99.90;;;;;;5035840;28;20210;-73
2022/05/31 03:43:24;;;;;;;2.93;2.63;;;9.10;99.90;;;;;;5035628;28;20214;-73
2022/05/31 03:45:49;;;;;;;5.57;3.00;;;9.10;99.90;;;;;;5053607;28;20175;-73
2022/05/31 03:48:16;;;;;;;2.80;2.30;;;9.10;99.90;;;;;;5053571;28;20229;-73
2022/05/31 03:50:42;;;;;;;4.77;2.80;;;9.10;99.90;;;;;;5053250;28;20210;-73
2022/05/31 03:53:13;;;;;;;3.90;3.07;;;9.10;99.90;;;;;;5034992;28;20196;-73
2022/05/31 03:55:40;;;;;;;3.77;2.90;;;9.20;99.90;;;;;;5035576;28;20646;-73
2022/05/31 03:58:07;;;;;;;5.27;2.50;;;9.20;99.90;;;;;;5053711;28;20170;-73
2022/05/31 04:00:33;;;;;;;4.00;2.83;;;9.20;99.90;;;;;;5053399;28;20310;-73
2022/05/31 04:02:59;;;;;;;4.03;2.83;;;9.20;99.90;;;;;;5053324;28;20222;-74
2022/05/31 04:05:25;;;;;;;3.90;2.50;;;9.20;99.90;;;;;;5053313;28;20179;-74
2022/05/31 04:07:55;;;;;;;7.07;3.27;;;9.20;99.90;;;;;;5053467;28;20179;-73
2022/05/31 04:10:21;;;;;;;3.27;2.60;;;9.30;99.90;;;;;;5053424;28;20276;-73
2022/05/31 04:12:47;;;;;;;3.97;2.97;;;9.30;99.90;;;;;;5035319;28;20195;-73
2022/05/31 04:15:14;;;;;;;3.40;2.83;;;9.30;99.90;;;;;;5053184;28;20689;-73
2022/05/31 04:17:40;;;;;;;5.30;2.83;;;9.30;99.90;;;;;;5053176;28;20172;-74
2022/05/31 04:20:06;;;;;;;4.53;2.93;;;9.30;99.90;;;;;;5053129;28;20171;-73
2022/05/31 04:22:32;;;;;;;7.37;2.83;;;9.30;99.90;;;;;;5053039;28;20249;-74
2022/05/31 04:25:01;;;;;;;4.20;2.67;;;9.30;99.90;;;;;;5035098;28;20206;-75
2022/05/31 04:27:27;;;;;;;3.00;2.70;;;9.40;99.90;;;;;;5053070;28;20168;-75
2022/05/31 04:29:52;;;;;;;3.20;2.87;;;9.30;99.90;;;;;;5052921;28;20210;-73
2022/05/31 04:32:18;;;;;;;3.60;2.70;;;9.40;99.90;;;;;;5052950;28;20262;-74
2022/05/31 04:34:43;;;;;;;4.07;2.73;;;9.40;99.90;;;;;;5035144;28;20186;-73
2022/05/31 04:37:10;;;;;;;3.57;2.43;;;9.40;99.90;;;;;;5035112;28;20259;-74
2022/05/31 04:39:36;;;;;;;3.87;2.70;;;9.40;99.90;;;;;;5053502;28;20505;-74
2022/05/31 04:42:02;;;;;;;4.07;3.13;;;9.40;99.90;;;;;;5052816;28;20223;-74
2022/05/31 04:44:27;;;;;;;6.63;3.00;;;9.50;99.90;;;;;;5094550;22;20230;-74
2022/05/31 04:46:53;;;;;;;3.57;2.40;;;9.50;99.90;;;;;;5075603;28;20171;-73
2022/05/31 04:49:19;;;;;;;5.87;3.17;;;9.50;99.90;;;;;;5075438;28;20714;-74
2022/05/31 04:51:47;;;;;;;7.33;2.80;;;9.50;99.90;;;;;;5075787;28;20199;-73
2022/05/31 04:54:13;;;;;;;3.97;2.57;;;9.50;99.90;;;;;;5075931;28;20282;-74
2022/05/31 04:56:39;;;;;;;4.60;2.53;;;9.50;99.90;;;;;;5075312;28;20187;-74
2022/05/31 04:59:05;;;;;;;4.93;2.70;;;9.60;99.90;;;;;;5076790;28;20170;-74
2022/05/31 05:01:33;;;;;;;5.17;2.83;;;9.60;99.90;;;;;;5075444;28;20182;-74
2022/05/31 05:03:58;;;;;;;3.97;2.73;;;9.60;99.90;;;;;;5077333;28;20570;-74
2022/05/31 05:06:24;;;;;;;2.70;2.23;;;9.60;99.90;;;;;;5079060;28;20182;-74
2022/05/31 05:08:50;;;;;;;4.70;2.50;;;9.60;99.90;;;;;;5081162;28;20320;-74
2022/05/31 05:11:18;;;;;;;5.03;2.80;;;9.70;99.90;;;;;;5083222;28;20198;-73
2022/05/31 05:13:44;;;;;;;2.83;2.53;;;9.70;99.90;;;;;;5082477;28;20191;-73
2022/05/31 05:16:12;;;;;;;4.00;2.50;;;9.70;99.90;;;;;;5082568;28;20175;-73
2022/05/31 05:18:38;;;;;;;3.50;2.53;;;9.80;99.90;;;;;;5081972;28;20175;-73
2022/05/31 05:21:06;;;;;;;4.13;2.30;;;9.80;99.90;;;;;;5083482;28;20171;-73
2022/05/31 05:23:32;;;;;;;3.27;2.90;;;9.80;99.90;;;;;;5084532;28;20679;-73
2022/05/31 05:25:59;;;;;;;5.17;2.60;;;9.90;99.90;;;;;;5082497;28;20183;-74
2022/05/31 05:31:33;;;;;;;5.03;2.50;;;10.00;99.90;;;;;;5083920;28;20216;-73
2022/05/31 05:34:00;;;;;;;4.10;2.70;;;10.00;99.90;;;;;;5082795;28;20187;-73
2022/05/31 05:36:26;;;;;;;4.90;2.70;;;10.00;99.90;;;;;;5081565;28;20171;-73
2022/05/31 05:38:53;;;;;;;3.17;2.67;;;10.10;99.90;;;;;;5082016;28;20167;-73
2022/05/31 05:41:20;;;;;;;4.87;2.80;;;10.10;99.90;;;;;;5082291;28;20228;-75
2022/05/31 05:43:46;;;;;;;3.07;2.47;;;10.20;99.90;;;;;;5082006;28;20216;-73
2022/05/31 05:46:21;;;;;;;5.50;3.17;;;10.20;99.90;;;;;;5083857;28;20198;-73
2022/05/31 05:48:47;;;;;;;4.67;2.70;;;10.20;99.90;;;;;;5083795;28;20514;-74
2022/05/31 05:51:19;;;;;;;3.17;2.50;;;10.30;99.90;;;;;;5083663;28;20214;-73
2022/05/31 05:53:45;;;;;;;4.00;2.63;;;10.30;99.90;;;;;;5083668;28;20243;-73
2022/05/31 05:56:11;;;;;;;8.07;2.87;;;10.40;99.90;;;;;;5082492;28;20183;-73
2022/05/31 05:58:37;;;;;;;4.70;3.00;;;10.40;99.90;;;;;;5084151;28;20183;-73
2022/05/31 06:01:10;;;;;;;3.37;3.07;;;10.40;99.90;;;;;;5083182;28;20178;-73
2022/05/31 06:03:51;;;;;;;6.47;2.87;;;10.40;99.90;;;;;;5083193;28;20241;-73
2022/05/31 06:06:17;;;;;;;3.83;3.00;;;10.40;99.90;;;;;;5081478;28;20163;-73
2022/05/31 06:08:52;;;;;;;6.03;3.40;;;10.40;99.90;;;;;;5081555;28;20183;-73
2022/05/31 06:11:23;;;;;;;6.33;3.70;;;10.40;99.90;;;;;;5081559;28;20228;-73
2022/05/31 06:14:05;;;;;;;7.10;3.83;;;10.40;99.90;;;;;;5083689;28;20198;-73
2022/05/31 06:16:34;;;;;;;7.57;4.13;;;10.50;99.90;;;;;;5082253;28;20641;-73
2022/05/31 06:19:18;;;;;;;8.67;4.27;;;10.60;99.90;;;;;;5081017;28;20182;-74
2022/05/31 06:21:46;;;;;;;5.37;3.60;;;10.60;99.90;;;;;;5081473;28;20167;-73
2022/05/31 06:24:12;;;;;;;4.97;3.57;;;10.60;99.90;;;;;;5082497;28;20231;-73
2022/05/31 06:26:39;;;;;;;6.33;3.50;;;10.60;99.90;;;;;;5082224;28;20174;-73
2022/05/31 06:29:05;;;;;;;7.97;3.13;;;10.70;99.90;;;;;;5081920;28;20644;-74
2022/05/31 06:31:30;;;;;;;6.97;3.27;;;10.70;99.90;;;;;;5082468;28;20187;-73
2022/05/31 06:33:56;;;;;;;5.70;3.33;;;10.70;99.90;;;;;;5081914;28;20198;-74
2022/05/31 06:36:21;;;;;;;9.43;3.97;;;10.80;99.90;;;;;;5079835;28;20240;-74
2022/05/31 06:38:47;;;;;;;6.73;3.73;;;10.80;99.90;;;;;;5080008;28;20713;-74
2022/05/31 06:41:13;;;;;;;5.33;3.07;;;10.80;99.90;;;;;;5081533;28;20175;-74
2022/05/31 06:43:39;;;;;;;7.17;4.20;;;10.80;99.90;;;;;;5079685;28;20301;-74
2022/05/31 06:46:06;;;;;;;7.27;3.90;;;10.80;99.90;;;;;;5081560;28;20202;-74
2022/05/31 06:48:32;;;;;;;5.83;3.70;;;10.90;99.90;;;;;;5081335;28;20171;-74
2022/05/31 06:50:57;;;;;;;6.67;3.73;;;10.80;99.90;;;;;;5081137;28;20252;-74
2022/05/31 06:56:48;;;;;;;7.07;4.30;;;10.80;99.90;;;;;;5080908;28;20189;-74
2022/05/31 06:59:02;;;;;;;4.77;3.90;;;10.90;99.90;;;;;;5080429;28;20173;-74
2022/05/31 07:01:37;;;;;;;5.87;4.60;;;10.80;99.90;;;;;;5080961;28;20174;-74
2022/05/31 07:04:04;;;;;;;5.53;4.57;;;10.90;99.90;;;;;;5079589;28;20187;-75
2022/05/31 07:06:31;;;;;;;6.70;3.93;;;10.90;99.90;;;;;;5079879;28;20194;-74
2022/05/31 07:08:57;;;;;;;5.10;4.10;;;10.90;99.90;;;;;;5079575;28;20258;-74
2022/05/31 07:11:23;;;;;;;7.83;4.73;;;10.90;99.90;;;;;;5080653;28;20226;-74
2022/05/31 07:13:49;;;;;;;5.37;4.77;;;10.90;99.90;;;;;;5078790;28;20672;-73
2022/05/31 07:16:15;;;;;;;6.50;5.20;;;10.90;99.90;;;;;;5078859;28;20228;-74
2022/05/31 07:18:40;;;;;;;7.20;4.63;;;10.90;99.90;;;;;;5079839;28;20175;-73
2022/05/31 07:21:06;;;;;;;7.00;4.70;;;10.90;99.90;;;;;;5080920;28;20261;-74
2022/05/31 07:23:32;;;;;;;7.60;4.47;;;10.90;99.90;;;;;;5080989;28;20190;-74
2022/05/31 07:26:02;;;;;;;7.80;4.27;;;11.00;99.90;;;;;;5080347;28;20171;-74
2022/05/31 07:28:28;;;;;;;7.23;4.77;;;11.00;99.90;;;;;;5079432;28;20562;-74
2022/05/31 07:30:54;;;;;;;8.10;5.10;;;11.00;99.90;;;;;;5079519;28;20202;-73
2022/05/31 07:33:20;;;;;;;8.63;5.07;;;11.00;99.90;;;;;;5077966;28;20218;-74
2022/05/31 07:35:47;;;;;;;7.57;4.57;;;10.90;99.90;;;;;;5080396;28;20171;-74
2022/05/31 07:38:12;;;;;;;7.03;5.30;;;11.00;99.90;;;;;;5080148;28;20166;-73
2022/05/31 07:40:38;;;;;;;7.80;5.37;;;11.00;99.90;;;;;;5079878;28;20194;-72
2022/05/31 07:43:04;;;;;;;7.57;5.87;;;11.00;99.90;;;;;;5079719;28;20202;-73
2022/05/31 07:45:29;;;;;;;9.33;6.37;;;11.00;99.90;;;;;;5082009;28;20167;-73
2022/05/31 07:47:55;;;;;;;10.90;7.30;;;11.10;99.90;;;;;;5081150;28;20179;-73
2022/05/31 07:50:21;;;;;;;10.97;7.00;;;11.10;99.90;;;;;;5081348;28;20256;-74
2022/05/31 07:52:47;;;;;;;12.10;7.47;;;11.20;99.90;;;;;;5081284;28;20177;-73
2022/05/31 07:55:13;;;;;;;13.70;6.93;;;11.30;99.90;;;;;;5081860;28;20163;-73
2022/05/31 08:00:24;;;;;;;12.70;6.97;;;11.40;99.90;;;;;;5081410;28;20189;-73
2022/05/31 08:02:49;;;;;;;10.43;7.40;;;11.50;99.90;;;;;;5079842;28;20183;-74
2022/05/31 08:05:15;;;;;;;12.43;6.93;;;11.60;99.90;;;;;;5081065;28;20178;-73
2022/05/31 08:07:41;;;;;;;12.40;6.67;;;11.70;99.90;;;;;;5081280;28;20202;-73
2022/05/31 08:10:08;;;;;;;11.13;7.43;;;11.80;99.90;;;;;;5081648;28;20309;-73
2022/05/31 08:12:34;;;;;;;9.47;7.00;;;11.80;99.90;;;;;;5081010;28;20224;-73
2022/05/31 08:15:00;;;;;;;7.47;6.23;;;11.90;99.90;;;;;;5080963;28;20234;-73
2022/05/31 08:17:26;;;;;;;11.50;7.30;;;12.00;99.90;;;;;;5081587;28;20198;-73
2022/05/31 08:19:54;;;;;;;10.97;6.10;;;12.00;99.90;;;;;;5080746;28;20175;-74
2022/05/31 08:22:20;;;;;;;10.10;6.23;;;12.10;99.90;;;;;;5079999;28;20248;-73
2022/05/31 08:24:46;;;;;;;10.13;6.27;;;12.10;99.90;;;;;;5081147;28;20214;-73
2022/05/31 08:27:12;;;;;;;10.23;6.10;;;12.20;99.90;;;;;;5080783;28;20239;-73
2022/05/31 08:29:38;;;;;;;9.93;6.43;;;12.30;99.90;;;;;;5080299;28;20755;-73
2022/05/31 08:32:04;;;;;;;8.23;6.70;;;12.40;99.90;;;;;;5078823;28;20174;-73
2022/05/31 08:34:30;;;;;;;10.67;6.17;;;12.40;99.90;;;;;;5080125;28;20191;-73
2022/05/31 08:36:56;;;;;;;6.17;5.37;;;12.50;99.90;;;;;;5079062;28;20249;-73
2022/05/31 08:39:22;;;;;;;6.07;4.33;;;12.60;99.90;;;;;;5079409;28;20271;-74
2022/05/31 08:41:51;;;;;;;7.70;4.67;;;12.70;99.90;;;;;;5079559;28;20206;-73
2022/05/31 08:44:33;;;;;;;13.10;5.00;;;12.70;99.90;;;;;;5078476;28;20221;-73
2022/05/31 08:47:22;;;;;;;8.20;4.10;;;12.90;99.90;;;;;;5079136;28;20200;-73
2022/05/31 08:53:02;;;;;;;7.33;3.33;;;13.10;99.90;;;;;;5079873;28;20209;-73
2022/05/31 08:58:27;;;;;;;5.67;2.63;;;13.20;99.90;;;;;;5079445;28;20651;-73
2022/05/31 09:00:57;;;;;;;9.63;3.73;;;13.30;99.90;;;;;;5079275;28;20159;-73
2022/05/31 09:03:30;;;;;;;3.87;2.90;;;13.30;99.90;;;;;;5080183;28;20187;-74
2022/05/31 09:06:01;;;;;;;6.10;3.13;;;13.50;99.90;;;;;;5079303;28;20189;-73
2022/05/31 09:08:52;;;;;;;4.03;2.77;;;13.50;99.90;;;;;;5079539;28;20167;-73
2022/05/31 09:11:23;;;;;;;5.13;2.60;;;13.60;99.90;;;;;;5078226;28;20210;-74
2022/05/31 09:14:17;;;;;;;4.10;2.83;;;13.70;99.90;;;;;;5081295;28;20198;-74
2022/05/31 09:17:01;;;;;;;7.07;2.67;;;13.70;99.90;;;;;;5081003;28;20170;-74
2022/05/31 09:19:34;;;;;;;4.67;3.03;;;13.80;99.90;;;;;;5079252;28;20167;-74
2022/05/31 09:22:01;;;;;;;4.93;2.83;;;13.80;99.90;;;;;;5079059;28;20166;-73
2022/05/31 09:24:28;;;;;;;5.77;3.63;;;13.90;99.90;;;;;;5077849;28;20199;-73
2022/05/31 09:27:05;;;;;;;6.20;3.50;;;14.00;99.90;;;;;;5081096;28;20224;-72
2022/05/31 09:30:01;;;;;;;7.07;3.20;;;14.10;99.90;;;;;;5080654;28;20183;-73
2022/05/31 09:32:39;;;;;;;4.17;3.33;;;14.10;99.90;;;;;;5079882;28;20159;-72
2022/05/31 09:35:14;;;;;;;10.63;3.17;;;14.20;94.80;;;;;;5087087;28;20178;-72
2022/05/31 09:37:57;;;;;;;5.90;2.90;;;14.20;65.50;;;;;;5083892;28;20189;-72
2022/05/31 09:40:36;;;;;;;7.43;3.37;;;14.30;40.70;;;;;;5082064;28;20203;-73
2022/05/31 09:43:15;;;;;;;3.20;2.70;;;14.30;1.00;;;;;;5086276;28;20272;-72
2022/05/31 09:46:03;;;;;;;5.80;2.93;;;14.40;1.00;;;;;;5085333;28;20190;-73
2022/05/31 09:48:28;;;;;;;6.60;2.90;;;14.50;1.00;;;;;;5078013;28;20187;-72
2022/05/31 09:51:11;;;;;;;6.00;3.10;;;14.60;1.00;;;;;;5087768;28;20741;-71
2022/05/31 09:59:28;;;;;;;4.70;2.60;;;14.90;24.50;;;;;;5077105;28;20230;-72
2022/05/31 10:01:54;;;;;;;4.43;2.57;;;14.90;90.10;;;;;;5085836;28;20185;-72
2022/05/31 10:04:23;;;;;;;4.73;2.03;;;15.10;1.00;;;;;;5088266;28;20231;-72
2022/05/31 10:06:54;;;;;;;5.13;2.17;;;15.10;1.00;;;;;;5089579;28;20221;-73
2022/05/31 10:09:24;;;;;;;2.57;1.77;;;15.20;1.00;;;;;;5088321;28;20222;-73
2022/05/31 10:12:18;;;;;;;3.17;1.80;;;15.10;99.90;;;;;;5087093;28;20235;-72
2022/05/31 10:14:47;;;;;;;2.97;1.77;;;15.20;99.90;;;;;;5083562;28;20199;-72
2022/05/31 10:17:27;;;;;;;2.63;1.90;;;15.30;99.90;;;;;;5089642;28;20258;-73
2022/05/31 10:20:19;;;;;;;2.83;1.93;;;15.30;57.80;;;;;;5088741;28;20174;-73
2022/05/31 10:22:58;;;;;;;3.00;2.30;;;15.30;1.00;;;;;;5089236;28;20190;-72
2022/05/31 10:25:29;;;;;;;7.30;2.30;;;15.40;99.90;;;;;;5089460;28;20171;-72
2022/05/31 10:28:04;;;;;;;2.87;2.17;;;15.50;1.00;;;;;;5090030;28;20178;-72
2022/05/31 10:30:30;;;;;;;3.43;2.47;;;15.60;99.90;;;;;;5090450;28;20208;-72
2022/05/31 10:33:24;;;;;;;4.00;2.90;;;15.70;1.00;;;;;;5089030;28;20177;-73
2022/05/31 10:36:08;;;;;;;3.30;2.30;;;15.80;99.90;;;;;;5089418;28;20610;-72
2022/05/31 10:38:35;;;;;;;2.93;1.87;;;16.00;91.90;;;;;;5082502;28;20644;-73
2022/05/31 10:41:02;;;;;;;3.67;1.80;;;16.10;99.90;;;;;;5082964;28;20663;-73
2022/05/31 10:43:43;;;;;;;3.37;2.00;;;16.20;1.00;;;;;;5085967;28;20245;-72
2022/05/31 10:46:21;;;;;;;2.70;1.93;;;16.10;99.90;;;;;;5090634;28;20236;-72
2022/05/31 10:48:49;;;;;;;6.10;2.47;;;16.10;99.90;;;;;;5090294;28;20159;-72
2022/05/31 10:51:32;;;;;;;3.00;1.80;;;16.20;1.00;;;;;;5088985;28;20205;-72
2022/05/31 10:54:26;;;;;;;4.77;1.90;;;16.40;29.80;;;;;;5088258;28;20194;-72
2022/05/31 10:57:17;;;;;;;4.10;2.00;;;16.50;99.90;;;;;;5087190;28;20170;-72
2022/05/31 10:59:49;;;;;;;5.90;2.40;;;16.60;99.90;;;;;;5089328;28;20632;-72
2022/05/31 11:02:44;;;;;;;3.20;1.90;;;16.70;99.90;;;;;;5088180;28;20174;-72
2022/05/31 11:05:16;;;;;;;3.53;1.97;;;16.70;74.30;;;;;;5087824;28;20163;-72
2022/05/31 11:11:28;;;;;;;3.17;1.90;;;16.70;1.00;;;;;;5078134;28;20197;-72
2022/05/31 11:14:07;;;;;;;3.53;1.80;;;16.60;99.90;;;;;;5088144;28;20191;-72
2022/05/31 11:17:02;;;;;;;2.33;1.80;;;16.70;99.90;;;;;;5080924;22;20232;-73
2022/05/31 11:19:43;;;;;;;3.43;1.93;;;16.80;99.90;;;;;;5034546;28;20165;-73
2022/05/31 11:22:36;;;;;;;3.80;2.20;;;16.60;1.00;;;;;;5034399;28;20195;-73
2022/05/31 11:25:14;;;;;;;2.77;2.27;;;16.70;99.90;;;;;;5034253;28;20184;-73
2022/05/31 11:27:58;;;;;;;2.40;1.90;;;16.90;1.00;;;;;;5015037;28;20643;-74
2022/05/31 11:30:26;;;;;;;3.70;1.80;;;16.90;1.00;;;;;;5013361;28;20197;-73
2022/05/31 11:33:13;;;;;;;3.80;1.70;;;17.00;1.00;;;;;;5013141;28;20177;-73
2022/05/31 11:35:59;;;;;;;2.50;1.73;;;17.10;1.00;;;;;;5014011;28;20568;-75
2022/05/31 11:38:37;;;;;;;4.27;1.90;;;17.20;1.00;;;;;;4983824;28;20220;-74
2022/05/31 11:41:06;;;;;;;4.30;2.00;;;17.20;1.00;;;;;;5010586;28;20643;-74
2022/05/31 11:44:04;;;;;;;5.40;2.10;;;17.20;1.00;;;;;;5013651;28;20184;-74
2022/05/31 11:46:44;;;;;;;3.50;2.40;;;17.20;1.00;;;;;;5013059;28;20201;-74
2022/05/31 11:49:37;;;;;;;3.53;2.30;;;17.20;26.70;;;;;;5014331;28;20193;-74
2022/05/31 11:52:28;;;;;;;3.43;2.20;;;17.30;99.90;;;;;;5012624;28;20184;-73
2022/05/31 11:58:00;;;;;;;4.27;2.20;;;17.50;99.90;;;;;;4994008;28;20539;-73
2022/05/31 12:00:41;;;;;;;4.37;2.07;;;17.60;99.90;;;;;;4992879;28;20654;-75
2022/05/31 12:03:28;;;;;;;3.07;1.53;;;17.70;99.90;;;;;;4993603;28;20654;-74
2022/05/31 12:06:02;;;;;;;3.37;2.03;;;17.80;99.90;;;;;;5013666;28;20197;-74
2022/05/31 12:08:35;;;;;;;2.70;1.90;;;18.00;99.90;;;;;;5012287;28;20184;-74
2022/05/31 12:11:15;;;;;;;2.60;1.80;;;18.10;1.00;;;;;;5013879;28;20558;-74
2022/05/31 12:13:44;;;;;;;2.90;2.07;;;18.20;14.20;;;;;;5013859;28;20160;-73
2022/05/31 12:16:11;;;;;;;4.53;2.27;;;18.40;1.00;;;;;;5013830;28;20201;-74
2022/05/31 12:18:40;;;;;;;3.17;1.97;;;18.50;1.00;;;;;;5013609;28;20541;-74
2022/05/31 12:21:29;;;;;;;6.10;2.40;;;18.60;1.00;;;;;;5013563;28;20169;-74
2022/05/31 12:24:16;;;;;;;2.27;2.00;;;18.70;1.00;;;;;;5012338;28;20601;-74
2022/05/31 12:26:45;;;;;;;2.57;1.87;;;18.70;1.00;;;;;;5013483;28;20201;-74
2022/05/31 12:29:29;;;;;;;2.70;1.70;;;18.80;99.90;;;;;;5013706;28;20173;-74
2022/05/31 12:32:29;;;;;;;2.33;1.70;;;18.90;99.90;;;;;;5012295;28;20214;-73
2022/05/31 12:34:59;;;;;;;2.27;1.37;;;18.60;99.90;;;;;;5012170;28;20173;-73
2022/05/31 12:37:25;;;;;;;1.80;1.57;;;18.60;1.00;;;;;;5012062;28;20227;-73
2022/05/31 12:40:10;;;;;;;4.13;1.67;;;18.70;1.00;;;;;;5013580;28;20251;-73
2022/05/31 12:42:39;;;;;;;1.47;1.00;;;18.70;99.90;;;;;;5013186;28;20184;-73
2022/05/31 12:45:36;;;;;;;2.73;1.43;;;18.80;1.00;;;;;;5013220;28;20184;-73
2022/05/31 12:48:15;;;;;;;2.53;1.50;;;18.90;1.00;;;;;;5013466;28;20169;-73
2022/05/31 12:50:51;;;;;;;3.30;1.50;;;19.00;99.90;;;;;;5012638;28;20189;-73
2022/05/31 12:53:21;;;;;;;2.10;1.50;;;19.10;1.00;;;;;;5012842;28;20631;-74
2022/05/31 12:55:55;;;;;;;1.70;1.40;;;19.30;1.00;;;;;;5010701;28;20744;-73
2022/05/31 12:58:36;;;;;;;2.70;1.27;;;19.40;99.90;;;;;;5012717;28;20200;-74
2022/05/31 13:01:10;;;;;;;4.63;0.80;;;19.60;99.90;;;;;;5012591;28;20230;-74
2022/05/31 13:03:42;;;;;;;1.80;0.83;;;19.40;1.00;;;;;;5013106;28;20266;-74
2022/05/31 13:06:09;;;;;;;0.97;0.60;;;19.50;1.00;;;;;;5012546;28;20204;-73
2022/05/31 13:08:57;;;;;;;1.07;0.83;;;19.40;1.00;;;;;;5012705;28;20169;-74
2022/05/31 13:20:23;;;;;;;2.53;1.20;;;18.70;1.00;;;;;;5013486;28;20188;-73
2022/05/31 13:23:09;;;;;;;1.10;0.90;;;18.60;1.00;;;;;;5028118;28;20543;-73
2022/05/31 13:25:49;;;;;;;1.10;0.90;;;18.50;1.00;;;;;;5029883;28;20287;-73
2022/05/31 13:28:22;;;;;;;1.33;0.90;;;18.50;1.00;;;;;;5015357;28;20636;-73
2022/05/31 13:30:49;;;;;;;1.43;1.00;;;18.40;1.00;;;;;;5016714;28;20255;-73
2022/05/31 13:33:19;;;;;;;2.27;1.03;;;18.30;1.00;;;;;;5015344;28;20589;-74
2022/05/31 13:35:44;;;;;;;0.97;0.80;;;18.20;1.00;;;;;;5031888;28;20228;-73
2022/05/31 13:38:21;;;;;;;1.40;1.30;;;18.10;1.00;;;;;;5016725;28;20207;-74
2022/05/31 13:40:51;;;;;;;3.07;1.73;;;17.80;1.00;;;;;;5016600;28;20157;-73
2022/05/31 13:43:31;;;;;;;3.07;1.50;;;17.60;99.90;;;;;;5016888;28;20161;-74
2022/05/31 13:46:00;;;;;;;3.00;1.43;;;17.20;1.00;;;;;;5031599;28;20227;-74
2022/05/31 13:48:30;;;;;;;3.03;1.50;;;16.90;99.90;;;;;;5031557;28;20202;-73
2022/05/31 13:51:02;;;;;;;6.53;1.63;;;16.90;1.00;;;;;;5014882;28;20201;-73
2022/05/31 13:53:42;;;;;;;3.03;1.60;;;17.10;1.00;;;;;;5031462;28;20177;-74